createdAt,value
2019-02-18T00:02:02.909Z,9.37
2019-02-18T00:07:14.578Z,9.32
2019-02-18T00:12:15.339Z,9.28
2019-02-18T00:17:20.735Z,9.25
2019-02-18T00:22:26.130Z,9.22
2019-02-18T00:27:31.515Z,9.21
2019-02-18T00:32:36.815Z,9.21
2019-02-18T00:37:42.162Z,9.22
2019-02-18T00:42:47.540Z,9.24
2019-02-18T00:47:52.923Z,9.21
2019-02-18T00:52:58.221Z,9.16
2019-02-18T00:58:03.507Z,9.11
2019-02-18T01:03:08.944Z,9.06
2019-02-18T01:08:14.363Z,9.02
2019-02-18T01:13:19.707Z,9.00
2019-02-18T01:18:25.007Z,8.96
2019-02-18T01:23:30.275Z,8.92
2019-02-18T01:28:35.576Z,8.86
2019-02-18T01:33:40.868Z,8.79
2019-02-18T01:38:46.216Z,8.68
2019-02-18T01:43:51.543Z,8.58
2019-02-18T01:48:56.864Z,8.52
2019-02-18T01:54:02.122Z,8.45
2019-02-18T01:59:07.453Z,8.40
2019-02-18T02:04:12.753Z,8.35
2019-02-18T02:09:18.175Z,8.30
2019-02-18T02:14:23.629Z,8.23
2019-02-18T02:19:28.925Z,8.20
2019-02-18T02:24:34.301Z,8.17
2019-02-18T02:29:39.614Z,8.14
2019-02-18T02:34:44.950Z,8.10
2019-02-18T02:39:50.418Z,8.09
2019-02-18T02:44:55.730Z,8.08
2019-02-18T02:50:01.043Z,8.10
2019-02-18T02:55:06.586Z,8.08
2019-02-18T03:00:12.162Z,8.03
2019-02-18T03:05:17.447Z,7.98
2019-02-18T03:10:22.774Z,7.93
2019-02-18T03:15:28.079Z,7.89
2019-02-18T03:20:33.377Z,7.91
2019-02-18T03:25:38.705Z,7.91
2019-02-18T03:31:13.027Z,7.88
2019-02-18T03:36:18.587Z,7.89
2019-02-18T03:41:24.048Z,7.91
2019-02-18T03:46:29.455Z,7.92
2019-02-18T03:51:34.889Z,7.91
2019-02-18T03:56:40.624Z,7.87
2019-02-18T04:01:46.432Z,7.82
2019-02-18T04:06:52.365Z,7.77
2019-02-18T04:11:58.592Z,7.72
2019-02-18T04:17:04.567Z,7.67
2019-02-18T04:22:10.643Z,7.60
2019-02-18T04:27:16.200Z,7.54
2019-02-18T04:32:21.592Z,7.49
2019-02-18T04:37:26.937Z,7.48
2019-02-18T04:42:32.316Z,7.43
2019-02-18T04:47:37.654Z,7.37
2019-02-18T04:52:42.992Z,7.30
2019-02-18T04:57:48.383Z,7.24
2019-02-18T05:02:54.160Z,7.18
2019-02-18T05:07:59.454Z,7.14
2019-02-18T05:13:04.744Z,7.09
2019-02-18T05:18:10.089Z,7.05
2019-02-18T05:23:15.519Z,7.03
2019-02-18T05:28:20.885Z,6.97
2019-02-18T05:33:28.574Z,6.92
2019-02-18T05:38:33.953Z,6.88
2019-02-18T05:43:39.311Z,6.86
2019-02-18T05:48:44.704Z,6.82
2019-02-18T05:53:49.965Z,6.78
2019-02-18T05:58:55.245Z,6.73
2019-02-18T06:04:00.734Z,6.70
2019-02-18T06:09:06.338Z,6.63
2019-02-18T06:14:11.646Z,6.58
2019-02-18T06:19:16.993Z,6.53
2019-02-18T06:24:22.328Z,6.51
2019-02-18T06:29:27.632Z,6.50
2019-02-18T06:34:32.953Z,6.48
2019-02-18T06:39:41.784Z,6.49
2019-02-18T06:44:53.696Z,6.50
2019-02-18T06:49:59.298Z,6.52
2019-02-18T06:55:04.674Z,6.56
2019-02-18T07:00:22.940Z,6.59
2019-02-18T07:05:40.091Z,6.66
2019-02-18T07:11:04.410Z,6.72
2019-02-18T07:16:09.911Z,6.77
2019-02-18T07:21:15.268Z,6.83
2019-02-18T07:26:20.609Z,6.90
2019-02-18T07:31:25.920Z,7.00
2019-02-18T07:36:31.242Z,7.14
2019-02-18T07:41:36.537Z,7.30
2019-02-18T07:46:41.960Z,7.65
2019-02-18T07:51:47.272Z,9.91
2019-02-18T07:56:52.643Z,12.72
2019-02-18T08:01:58.003Z,15.14
2019-02-18T08:07:03.337Z,17.18
2019-02-18T08:12:08.751Z,18.65
2019-02-18T08:17:14.195Z,19.63
2019-02-18T08:22:19.528Z,21.03
2019-02-18T08:27:24.869Z,22.07
2019-02-18T08:32:30.174Z,22.73
2019-02-18T08:37:35.507Z,24.03
2019-02-18T08:42:40.822Z,25.57
2019-02-18T08:47:46.148Z,26.87
2019-02-18T08:52:51.439Z,27.69
2019-02-18T08:57:56.961Z,28.50
2019-02-18T09:03:02.313Z,28.80
2019-02-18T09:08:07.663Z,29.10
2019-02-18T09:13:13.013Z,29.12
2019-02-18T09:18:18.337Z,29.47
2019-02-18T09:23:37.331Z,29.90
2019-02-18T09:28:42.797Z,30.88
2019-02-18T09:33:48.091Z,31.85
2019-02-18T09:38:53.664Z,32.49
2019-02-18T09:43:59.150Z,32.51
2019-02-18T09:49:04.518Z,32.61
2019-02-18T09:54:09.890Z,32.39
2019-02-18T09:59:15.259Z,31.13
2019-02-18T10:04:22.535Z,28.64
2019-02-18T10:09:27.758Z,24.47
2019-02-18T10:14:33.113Z,21.20
2019-02-18T10:19:38.498Z,18.87
2019-02-18T10:24:50.407Z,17.27
2019-02-18T10:29:50.957Z,16.13
2019-02-18T10:34:56.467Z,15.27
2019-02-18T10:40:01.968Z,14.73
2019-02-18T10:45:09.422Z,14.40
2019-02-18T10:50:14.800Z,14.23
2019-02-18T10:55:20.247Z,14.16
2019-02-18T11:00:25.801Z,14.11
2019-02-18T11:05:31.186Z,14.08
2019-02-18T11:10:36.706Z,14.12
2019-02-18T11:15:42.095Z,14.21
2019-02-18T11:20:47.466Z,14.31
2019-02-18T11:25:52.825Z,14.38
2019-02-18T11:30:58.164Z,14.50
2019-02-18T11:36:03.569Z,14.66
2019-02-18T11:41:08.882Z,14.79
2019-02-18T11:46:14.211Z,14.93
2019-02-18T11:51:19.493Z,15.07
2019-02-18T11:56:25.122Z,15.20
2019-02-18T12:01:32.366Z,15.33
2019-02-18T12:06:37.769Z,15.43
2019-02-18T12:11:43.136Z,15.58
2019-02-18T12:16:48.460Z,15.70
2019-02-18T12:21:53.833Z,15.83
2019-02-18T12:26:59.261Z,15.97
2019-02-18T12:32:04.683Z,16.14
2019-02-18T12:37:10.370Z,16.29
2019-02-18T12:42:15.730Z,16.39
2019-02-18T12:47:21.042Z,16.50
2019-02-18T12:52:26.713Z,16.66
2019-02-18T12:57:32.210Z,16.79
2019-02-18T13:02:44.254Z,16.95
2019-02-18T13:07:44.705Z,17.11
2019-02-18T13:12:50.125Z,17.26
2019-02-18T13:17:55.587Z,17.35
2019-02-18T13:23:01.151Z,17.43
2019-02-18T13:28:08.690Z,17.52
2019-02-18T13:33:13.990Z,17.58
2019-02-18T13:38:19.517Z,17.65
2019-02-18T13:43:25.023Z,17.71
2019-02-18T13:48:30.431Z,17.79
2019-02-18T13:53:35.839Z,17.85
2019-02-18T13:58:41.158Z,17.89
2019-02-18T14:03:46.777Z,17.94
2019-02-18T14:08:52.086Z,18.00
2019-02-18T14:13:57.471Z,18.03
2019-02-18T14:19:02.885Z,18.05
2019-02-18T14:24:08.305Z,18.06
2019-02-18T14:29:13.736Z,18.05
2019-02-18T14:34:19.173Z,18.03
2019-02-18T14:39:25.078Z,18.04
2019-02-18T14:44:30.487Z,17.99
2019-02-18T14:49:36.159Z,17.94
2019-02-18T14:54:41.478Z,17.90
2019-02-18T14:59:46.866Z,17.82
2019-02-18T15:04:52.361Z,17.67
2019-02-18T15:09:57.766Z,17.52
2019-02-18T15:15:03.194Z,17.37
2019-02-18T15:20:08.630Z,17.18
2019-02-18T15:25:14.585Z,17.03
2019-02-18T15:30:20.076Z,16.92
2019-02-18T15:35:25.463Z,16.82
2019-02-18T15:40:30.755Z,16.73
2019-02-18T15:45:36.211Z,16.61
2019-02-18T15:50:41.690Z,16.50
2019-02-18T15:55:46.981Z,16.39
2019-02-18T16:00:52.456Z,16.31
2019-02-18T16:05:57.879Z,16.21
2019-02-18T16:11:03.374Z,16.06
2019-02-18T16:16:08.777Z,15.92
2019-02-18T16:21:14.157Z,15.76
2019-02-18T16:26:19.604Z,15.62
2019-02-18T16:31:25.033Z,15.46
2019-02-18T16:36:30.505Z,15.29
2019-02-18T16:41:36.309Z,15.12
2019-02-18T16:46:41.712Z,14.96
2019-02-18T16:51:47.483Z,14.76
2019-02-18T16:56:52.780Z,14.59
2019-02-18T17:01:58.333Z,14.44
2019-02-18T17:07:04.013Z,14.31
2019-02-18T17:12:09.836Z,14.19
2019-02-18T17:17:15.342Z,14.10
2019-02-18T17:22:20.923Z,14.05
2019-02-18T17:27:26.383Z,13.96
2019-02-18T17:32:31.726Z,13.86
2019-02-18T17:37:37.028Z,13.80
2019-02-18T17:42:42.607Z,13.70
2019-02-18T17:47:47.985Z,13.60
2019-02-18T17:52:53.819Z,13.50
2019-02-18T17:57:59.575Z,13.42
2019-02-18T18:03:05.173Z,13.31
2019-02-18T18:08:10.583Z,13.22
2019-02-18T18:13:19.526Z,13.13
2019-02-18T18:18:23.441Z,13.05
2019-02-18T18:23:30.529Z,12.99
2019-02-18T18:28:36.023Z,12.91
2019-02-18T18:33:41.380Z,12.84
2019-02-18T18:38:46.825Z,12.79
2019-02-18T18:43:52.837Z,12.71
2019-02-18T18:48:58.230Z,12.61
2019-02-18T18:54:03.687Z,12.53
2019-02-18T18:59:09.737Z,12.43
2019-02-18T19:04:15.603Z,12.32
2019-02-18T19:09:21.244Z,12.21
2019-02-18T19:14:26.706Z,12.11
2019-02-18T19:19:32.009Z,12.03
2019-02-18T19:24:37.315Z,11.97
2019-02-18T19:29:42.948Z,11.92
2019-02-18T19:34:48.463Z,11.87
2019-02-18T19:39:53.832Z,11.85
2019-02-18T19:44:59.161Z,11.81
2019-02-18T19:50:04.766Z,11.80
2019-02-18T19:55:10.193Z,11.77
2019-02-18T20:00:17.031Z,11.71
2019-02-18T20:05:22.530Z,11.60
2019-02-18T20:10:27.957Z,11.55
2019-02-18T20:15:33.263Z,11.51
2019-02-18T20:20:38.589Z,11.46
2019-02-18T20:25:43.977Z,11.41
2019-02-18T20:30:49.430Z,11.34
2019-02-18T20:35:54.798Z,11.29
2019-02-18T20:41:00.127Z,11.25
2019-02-18T20:46:05.441Z,11.23
2019-02-18T20:51:10.879Z,11.20
2019-02-18T20:56:16.290Z,11.20
2019-02-18T21:01:21.909Z,11.20
2019-02-18T21:06:27.218Z,11.20
2019-02-18T21:11:32.657Z,11.19
2019-02-18T21:16:38.016Z,11.17
2019-02-18T21:21:43.597Z,11.15
2019-02-18T21:26:49.821Z,11.10
2019-02-18T21:31:55.178Z,11.05
2019-02-18T21:37:00.890Z,10.99
2019-02-18T21:42:06.425Z,10.96
2019-02-18T21:47:12.053Z,10.91
2019-02-18T21:52:17.575Z,10.86
2019-02-18T21:57:23.062Z,10.83
2019-02-18T22:02:28.638Z,10.83
2019-02-18T22:07:34.192Z,10.81
2019-02-18T22:12:39.554Z,10.80
2019-02-18T22:17:44.967Z,10.78
2019-02-18T22:22:50.833Z,10.75
2019-02-18T22:27:56.397Z,10.75
2019-02-18T22:33:01.866Z,10.74
2019-02-18T22:38:07.250Z,10.74
2019-02-18T22:43:14.689Z,10.77
2019-02-18T22:48:20.113Z,10.79
2019-02-18T22:53:25.484Z,10.83
2019-02-18T22:58:31.467Z,10.86
2019-02-18T23:03:36.830Z,10.85
2019-02-18T23:08:42.559Z,10.84
2019-02-18T23:13:47.879Z,10.83
2019-02-18T23:18:53.212Z,10.81
2019-02-18T23:23:58.877Z,10.79
2019-02-18T23:29:04.316Z,10.73
2019-02-18T23:34:09.629Z,10.68
2019-02-18T23:39:14.949Z,10.62
2019-02-18T23:44:20.305Z,10.59
2019-02-18T23:49:25.679Z,10.55
2019-02-18T23:54:31.000Z,10.52
2019-02-18T23:59:36.406Z,10.50
